sensor_id;sensor_type;location;lat;lon;timestamp;pressure;altitude;pressure_sealevel;temperature;humidity
23677;BME280;31493;49.058;12.190;2023-06-10T00:02:01;95780.88;;;15.77;100.00
23677;BME280;31493;49.058;12.190;2023-06-10T00:04:29;95781.31;;;15.73;100.00
23677;BME280;31493;49.058;12.190;2023-06-10T00:06:57;95774.72;;;15.69;100.00
23677;BME280;31493;49.058;12.190;2023-06-10T00:09:24;95776.94;;;15.64;100.00
23677;BME280;31493;49.058;12.190;2023-06-10T00:11:52;95779.00;;;15.50;100.00
23677;BME280;31493;49.058;12.190;2023-06-10T00:14:19;95786.44;;;15.45;100.00
23677;BME280;31493;49.058;12.190;2023-06-10T00:16:46;95780.53;;;15.43;100.00
23677;BME280;31493;49.058;12.190;2023-06-10T00:19:13;95790.72;;;15.27;100.00
23677;BME280;31493;49.058;12.190;2023-06-10T00:21:41;95790.97;;;15.33;100.00
23677;BME280;31493;49.058;12.190;2023-06-10T00:24:11;95780.44;;;15.35;100.00
23677;BME280;31493;49.058;12.190;2023-06-10T00:26:38;95783.00;;;15.45;100.00
23677;BME280;31493;49.058;12.190;2023-06-10T00:29:06;95774.75;;;15.40;100.00
23677;BME280;31493;49.058;12.190;2023-06-10T00:31:34;95783.16;;;15.43;100.00
23677;BME280;31493;49.058;12.190;2023-06-10T00:34:01;95785.94;;;15.22;100.00
23677;BME280;31493;49.058;12.190;2023-06-10T00:36:29;95778.38;;;15.19;100.00
23677;BME280;31493;49.058;12.190;2023-06-10T00:38:56;95778.66;;;15.16;100.00
23677;BME280;31493;49.058;12.190;2023-06-10T00:41:25;95773.16;;;15.19;100.00
23677;BME280;31493;49.058;12.190;2023-06-10T00:43:53;95774.41;;;15.15;100.00
23677;BME280;31493;49.058;12.190;2023-06-10T00:46:21;95774.41;;;15.15;100.00
23677;BME280;31493;49.058;12.190;2023-06-10T00:48:48;95771.13;;;15.13;100.00
23677;BME280;31493;49.058;12.190;2023-06-10T00:51:15;95765.78;;;15.05;100.00
23677;BME280;31493;49.058;12.190;2023-06-10T00:53:43;95759.59;;;15.06;100.00
23677;BME280;31493;49.058;12.190;2023-06-10T00:56:11;95766.88;;;15.12;100.00
23677;BME280;31493;49.058;12.190;2023-06-10T00:58:41;95758.50;;;15.18;100.00
23677;BME280;31493;49.058;12.190;2023-06-10T01:01:08;95760.69;;;15.13;100.00
23677;BME280;31493;49.058;12.190;2023-06-10T01:03:36;95754.38;;;15.06;100.00
23677;BME280;31493;49.058;12.190;2023-06-10T01:06:09;95749.84;;;15.08;100.00
23677;BME280;31493;49.058;12.190;2023-06-10T01:08:45;95757.25;;;15.22;100.00
23677;BME280;31493;49.058;12.190;2023-06-10T01:11:18;95753.56;;;15.05;100.00
23677;BME280;31493;49.058;12.190;2023-06-10T01:13:49;95765.78;;;14.95;100.00
23677;BME280;31493;49.058;12.190;2023-06-10T01:16:18;95764.53;;;14.99;100.00
23677;BME280;31493;49.058;12.190;2023-06-10T01:18:46;95758.09;;;14.94;100.00
23677;BME280;31493;49.058;12.190;2023-06-10T01:21:19;95767.16;;;14.99;100.00
23677;BME280;31493;49.058;12.190;2023-06-10T01:23:46;95768.13;;;14.89;100.00
23677;BME280;31493;49.058;12.190;2023-06-10T01:26:14;95753.72;;;14.94;100.00
23677;BME280;31493;49.058;12.190;2023-06-10T01:28:46;95764.41;;;14.82;100.00
23677;BME280;31493;49.058;12.190;2023-06-10T01:31:18;95772.22;;;14.91;100.00
23677;BME280;31493;49.058;12.190;2023-06-10T01:33:51;95763.72;;;14.89;100.00
23677;BME280;31493;49.058;12.190;2023-06-10T01:36:21;95773.19;;;14.90;100.00
23677;BME280;31493;49.058;12.190;2023-06-10T01:38:50;95763.44;;;14.83;100.00
23677;BME280;31493;49.058;12.190;2023-06-10T01:41:19;95768.94;;;14.80;100.00
23677;BME280;31493;49.058;12.190;2023-06-10T01:43:48;95767.31;;;14.98;100.00
23677;BME280;31493;49.058;12.190;2023-06-10T01:46:15;95764.66;;;15.08;100.00
23677;BME280;31493;49.058;12.190;2023-06-10T01:48:46;95766.03;;;15.02;100.00
23677;BME280;31493;49.058;12.190;2023-06-10T01:51:13;95765.50;;;14.79;100.00
23677;BME280;31493;49.058;12.190;2023-06-10T01:53:42;95771.56;;;14.80;100.00
23677;BME280;31493;49.058;12.190;2023-06-10T01:56:09;95769.78;;;14.80;100.00
23677;BME280;31493;49.058;12.190;2023-06-10T01:58:42;95775.38;;;14.75;100.00
23677;BME280;31493;49.058;12.190;2023-06-10T02:01:09;95771.66;;;14.78;100.00
23677;BME280;31493;49.058;12.190;2023-06-10T02:03:36;95768.81;;;14.81;100.00
23677;BME280;31493;49.058;12.190;2023-06-10T02:06:04;95769.88;;;14.78;100.00
23677;BME280;31493;49.058;12.190;2023-06-10T02:08:31;95772.50;;;14.78;100.00
23677;BME280;31493;49.058;12.190;2023-06-10T02:10:59;95771.66;;;14.78;100.00
23677;BME280;31493;49.058;12.190;2023-06-10T02:13:26;95772.50;;;14.78;100.00
23677;BME280;31493;49.058;12.190;2023-06-10T02:15:53;95767.97;;;14.71;100.00
23677;BME280;31493;49.058;12.190;2023-06-10T02:18:20;95780.75;;;14.74;100.00
23677;BME280;31493;49.058;12.190;2023-06-10T02:20:47;95781.66;;;14.54;100.00
23677;BME280;31493;49.058;12.190;2023-06-10T02:23:14;95777.41;;;14.52;100.00
23677;BME280;31493;49.058;12.190;2023-06-10T02:25:41;95773.44;;;14.48;100.00
23677;BME280;31493;49.058;12.190;2023-06-10T02:28:10;95785.38;;;14.51;100.00
23677;BME280;31493;49.058;12.190;2023-06-10T02:30:39;95782.31;;;14.46;100.00
23677;BME280;31493;49.058;12.190;2023-06-10T02:33:06;95793.13;;;14.41;100.00
23677;BME280;31493;49.058;12.190;2023-06-10T02:35:35;95790.13;;;14.46;100.00
23677;BME280;31493;49.058;12.190;2023-06-10T02:38:03;95787.41;;;14.47;100.00
23677;BME280;31493;49.058;12.190;2023-06-10T02:40:31;95792.31;;;14.31;100.00
23677;BME280;31493;49.058;12.190;2023-06-10T02:42:58;95796.63;;;14.51;100.00
23677;BME280;31493;49.058;12.190;2023-06-10T02:45:26;95786.69;;;14.45;100.00
23677;BME280;31493;49.058;12.190;2023-06-10T02:47:53;95786.44;;;14.48;100.00
23677;BME280;31493;49.058;12.190;2023-06-10T02:50:20;95787.41;;;14.47;100.00
23677;BME280;31493;49.058;12.190;2023-06-10T02:52:48;95772.06;;;14.54;100.00
23677;BME280;31493;49.058;12.190;2023-06-10T02:55:15;95780.16;;;14.51;100.00
23677;BME280;31493;49.058;12.190;2023-06-10T02:57:42;95777.81;;;14.48;100.00
23677;BME280;31493;49.058;12.190;2023-06-10T03:00:10;95786.69;;;14.45;100.00
23677;BME280;31493;49.058;12.190;2023-06-10T03:02:39;95777.00;;;14.47;100.00
23677;BME280;31493;49.058;12.190;2023-06-10T03:05:07;95776.88;;;14.49;100.00
23677;BME280;31493;49.058;12.190;2023-06-10T03:07:36;95787.41;;;14.47;100.00
23677;BME280;31493;49.058;12.190;2023-06-10T03:10:04;95780.81;;;14.43;100.00
23677;BME280;31493;49.058;12.190;2023-06-10T03:12:31;95776.69;;;14.41;100.00
23677;BME280;31493;49.058;12.190;2023-06-10T03:14:58;95779.56;;;14.38;100.00
23677;BME280;31493;49.058;12.190;2023-06-10T03:17:25;95780.53;;;14.37;100.00
23677;BME280;31493;49.058;12.190;2023-06-10T03:19:54;95764.66;;;14.59;100.00
23677;BME280;31493;49.058;12.190;2023-06-10T03:22:21;95767.00;;;14.72;100.00
23677;BME280;31493;49.058;12.190;2023-06-10T03:24:48;95778.47;;;14.31;100.00
23677;BME280;31493;49.058;12.190;2023-06-10T03:27:16;95784.50;;;14.31;100.00
23677;BME280;31493;49.058;12.190;2023-06-10T03:29:43;95771.28;;;14.23;100.00
23677;BME280;31493;49.058;12.190;2023-06-10T03:32:10;95786.91;;;14.23;100.00
23677;BME280;31493;49.058;12.190;2023-06-10T03:34:37;95785.44;;;14.30;100.00
23677;BME280;31493;49.058;12.190;2023-06-10T03:37:06;95786.09;;;14.22;100.00
23677;BME280;31493;49.058;12.190;2023-06-10T03:39:33;95786.56;;;14.37;100.00
23677;BME280;31493;49.058;12.190;2023-06-10T03:42:01;95790.88;;;14.17;100.00
23677;BME280;31493;49.058;12.190;2023-06-10T03:44:28;95778.28;;;14.22;100.00
23677;BME280;31493;49.058;12.190;2023-06-10T03:46:55;95790.19;;;14.15;100.00
23677;BME280;31493;49.058;12.190;2023-06-10T03:49:23;95788.69;;;14.13;100.00
23677;BME280;31493;49.058;12.190;2023-06-10T03:51:52;95802.34;;;14.05;100.00
23677;BME280;31493;49.058;12.190;2023-06-10T03:54:21;95794.56;;;14.15;100.00
23677;BME280;31493;49.058;12.190;2023-06-10T03:56:48;95790.63;;;14.20;100.00
23677;BME280;31493;49.058;12.190;2023-06-10T03:59:16;95804.41;;;14.11;100.00
23677;BME280;31493;49.058;12.190;2023-06-10T04:01:43;95817.13;;;14.05;100.00
23677;BME280;31493;49.058;12.190;2023-06-10T04:04:13;95811.91;;;13.95;100.00
23677;BME280;31493;49.058;12.190;2023-06-10T04:06:40;95804.13;;;14.05;100.00
23677;BME280;31493;49.058;12.190;2023-06-10T04:09:09;95817.13;;;14.05;100.00
23677;BME280;31493;49.058;12.190;2023-06-10T04:11:38;95811.31;;;14.22;100.00
23677;BME280;31493;49.058;12.190;2023-06-10T04:14:05;95815.78;;;14.10;100.00
23677;BME280;31493;49.058;12.190;2023-06-10T04:16:32;95805.13;;;14.13;100.00
23677;BME280;31493;49.058;12.190;2023-06-10T04:18:59;95821.00;;;14.10;100.00
23677;BME280;31493;49.058;12.190;2023-06-10T04:21:26;95815.41;;;14.15;100.00
23677;BME280;31493;49.058;12.190;2023-06-10T04:23:53;95808.75;;;14.32;100.00
23677;BME280;31493;49.058;12.190;2023-06-10T04:26:20;95805.13;;;14.23;100.00
23677;BME280;31493;49.058;12.190;2023-06-10T04:28:49;95815.59;;;14.33;100.00
23677;BME280;31493;49.058;12.190;2023-06-10T04:31:16;95820.22;;;14.29;100.00
23677;BME280;31493;49.058;12.190;2023-06-10T04:33:43;95813.94;;;14.32;100.00
23677;BME280;31493;49.058;12.190;2023-06-10T04:36:10;95811.66;;;14.48;100.00
23677;BME280;31493;49.058;12.190;2023-06-10T04:38:37;95819.69;;;14.75;100.00
23677;BME280;31493;49.058;12.190;2023-06-10T04:41:04;95819.13;;;14.62;100.00
23677;BME280;31493;49.058;12.190;2023-06-10T04:43:31;95812.00;;;14.74;100.00
23677;BME280;31493;49.058;12.190;2023-06-10T04:45:59;95818.03;;;15.03;100.00
23677;BME280;31493;49.058;12.190;2023-06-10T04:48:27;95813.94;;;15.01;100.00
23677;BME280;31493;49.058;12.190;2023-06-10T04:50:54;95810.22;;;14.94;100.00
23677;BME280;31493;49.058;12.190;2023-06-10T04:53:22;95816.94;;;15.16;100.00
23677;BME280;31493;49.058;12.190;2023-06-10T04:55:49;95818.16;;;15.21;100.00
23677;BME280;31493;49.058;12.190;2023-06-10T04:58:16;95814.34;;;15.35;100.00
23677;BME280;31493;49.058;12.190;2023-06-10T05:00:43;95817.16;;;15.51;100.00
23677;BME280;31493;49.058;12.190;2023-06-10T05:03:12;95813.19;;;15.57;100.00
23677;BME280;31493;49.058;12.190;2023-06-10T05:05:39;95820.97;;;15.76;100.00
23677;BME280;31493;49.058;12.190;2023-06-10T05:08:06;95831.00;;;15.91;100.00
23677;BME280;31493;49.058;12.190;2023-06-10T05:10:33;95821.03;;;16.04;100.00
23677;BME280;31493;49.058;12.190;2023-06-10T05:13:00;95822.84;;;16.03;100.00
23677;BME280;31493;49.058;12.190;2023-06-10T05:15:28;95835.34;;;16.00;100.00
23677;BME280;31493;49.058;12.190;2023-06-10T05:17:56;95825.50;;;16.21;100.00
23677;BME280;31493;49.058;12.190;2023-06-10T05:20:25;95837.03;;;16.19;100.00
23677;BME280;31493;49.058;12.190;2023-06-10T05:22:54;95816.22;;;16.36;100.00
23677;BME280;31493;49.058;12.190;2023-06-10T05:25:21;95819.22;;;16.42;100.00
23677;BME280;31493;49.058;12.190;2023-06-10T05:27:48;95828.06;;;16.31;100.00
23677;BME280;31493;49.058;12.190;2023-06-10T05:30:15;95833.09;;;16.15;100.00
23677;BME280;31493;49.058;12.190;2023-06-10T05:32:44;95826.53;;;16.56;100.00
23677;BME280;31493;49.058;12.190;2023-06-10T05:35:11;95827.91;;;16.32;100.00
23677;BME280;31493;49.058;12.190;2023-06-10T05:37:39;95826.41;;;16.30;100.00
23677;BME280;31493;49.058;12.190;2023-06-10T05:40:07;95827.97;;;16.23;100.00
23677;BME280;31493;49.058;12.190;2023-06-10T05:42:34;95827.66;;;16.53;100.00
23677;BME280;31493;49.058;12.190;2023-06-10T05:45:02;95828.78;;;16.23;100.00
23677;BME280;31493;49.058;12.190;2023-06-10T05:47:29;95823.31;;;16.44;100.00
23677;BME280;31493;49.058;12.190;2023-06-10T05:49:56;95826.28;;;16.59;100.00
23677;BME280;31493;49.058;12.190;2023-06-10T05:52:23;95837.63;;;16.67;100.00
23677;BME280;31493;49.058;12.190;2023-06-10T05:54:52;95821.25;;;16.93;100.00
23677;BME280;31493;49.058;12.190;2023-06-10T05:57:20;95820.03;;;16.87;100.00
23677;BME280;31493;49.058;12.190;2023-06-10T05:59:47;95835.72;;;17.05;100.00
23677;BME280;31493;49.058;12.190;2023-06-10T06:02:14;95825.75;;;17.01;100.00
23677;BME280;31493;49.058;12.190;2023-06-10T06:04:41;95826.91;;;17.24;100.00
23677;BME280;31493;49.058;12.190;2023-06-10T06:07:08;95824.69;;;17.55;100.00
23677;BME280;31493;49.058;12.190;2023-06-10T06:09:35;95818.56;;;17.64;100.00
23677;BME280;31493;49.058;12.190;2023-06-10T06:12:04;95827.38;;;17.63;100.00
23677;BME280;31493;49.058;12.190;2023-06-10T06:14:37;95825.75;;;17.62;100.00
23677;BME280;31493;49.058;12.190;2023-06-10T06:17:04;95814.13;;;17.65;100.00
23677;BME280;31493;49.058;12.190;2023-06-10T06:19:32;95811.06;;;17.95;100.00
23677;BME280;31493;49.058;12.190;2023-06-10T06:21:59;95828.13;;;17.99;100.00
23677;BME280;31493;49.058;12.190;2023-06-10T06:24:26;95814.34;;;18.23;100.00
23677;BME280;31493;49.058;12.190;2023-06-10T06:26:53;95819.28;;;18.35;100.00
23677;BME280;31493;49.058;12.190;2023-06-10T06:29:21;95823.56;;;18.36;100.00
23677;BME280;31493;49.058;12.190;2023-06-10T06:31:48;95816.75;;;18.17;100.00
23677;BME280;31493;49.058;12.190;2023-06-10T06:34:15;95817.34;;;18.45;100.00
23677;BME280;31493;49.058;12.190;2023-06-10T06:36:42;95819.25;;;18.69;100.00
23677;BME280;31493;49.058;12.190;2023-06-10T06:39:09;95822.47;;;18.55;100.00
23677;BME280;31493;49.058;12.190;2023-06-10T06:41:36;95815.81;;;18.68;100.00
23677;BME280;31493;49.058;12.190;2023-06-10T06:44:03;95810.44;;;18.86;100.00
23677;BME280;31493;49.058;12.190;2023-06-10T06:46:32;95811.31;;;19.11;99.77
23677;BME280;31493;49.058;12.190;2023-06-10T06:48:59;95801.63;;;19.28;96.79
23677;BME280;31493;49.058;12.190;2023-06-10T06:51:26;95808.69;;;19.36;94.81
23677;BME280;31493;49.058;12.190;2023-06-10T06:53:53;95811.78;;;19.55;91.86
23677;BME280;31493;49.058;12.190;2023-06-10T06:56:22;95823.63;;;19.59;90.65
23677;BME280;31493;49.058;12.190;2023-06-10T06:58:49;95816.88;;;19.16;90.31
23677;BME280;31493;49.058;12.190;2023-06-10T07:01:16;95832.31;;;19.36;90.06
23677;BME280;31493;49.058;12.190;2023-06-10T07:03:45;95827.03;;;19.44;90.56
23677;BME280;31493;49.058;12.190;2023-06-10T07:06:12;95821.63;;;19.37;88.87
23677;BME280;31493;49.058;12.190;2023-06-10T07:08:39;95842.66;;;19.62;90.74
23677;BME280;31493;49.058;12.190;2023-06-10T07:11:06;95835.28;;;19.73;89.87
23677;BME280;31493;49.058;12.190;2023-06-10T07:13:33;95852.66;;;19.58;89.82
23677;BME280;31493;49.058;12.190;2023-06-10T07:16:00;95849.72;;;19.61;90.34
23677;BME280;31493;49.058;12.190;2023-06-10T07:18:27;95845.22;;;19.94;90.66
23677;BME280;31493;49.058;12.190;2023-06-10T07:20:56;95841.00;;;19.69;88.76
23677;BME280;31493;49.058;12.190;2023-06-10T07:23:23;95842.63;;;19.29;89.32
23677;BME280;31493;49.058;12.190;2023-06-10T07:25:50;95849.03;;;19.18;90.65
23677;BME280;31493;49.058;12.190;2023-06-10T07:28:17;95853.63;;;19.41;91.17
23677;BME280;31493;49.058;12.190;2023-06-10T07:30:44;95844.28;;;19.46;91.02
23677;BME280;31493;49.058;12.190;2023-06-10T07:33:11;95864.97;;;19.74;89.98
23677;BME280;31493;49.058;12.190;2023-06-10T07:35:38;95845.59;;;19.50;88.98
23677;BME280;31493;49.058;12.190;2023-06-10T07:38:06;95861.81;;;19.38;90.50
23677;BME280;31493;49.058;12.190;2023-06-10T07:40:33;95852.66;;;19.91;88.75
23677;BME280;31493;49.058;12.190;2023-06-10T07:43:00;95857.91;;;19.91;85.40
23677;BME280;31493;49.058;12.190;2023-06-10T07:45:27;95856.94;;;19.83;86.98
23677;BME280;31493;49.058;12.190;2023-06-10T07:47:54;95860.69;;;19.89;87.45
23677;BME280;31493;49.058;12.190;2023-06-10T07:50:21;95854.94;;;20.02;85.59
23677;BME280;31493;49.058;12.190;2023-06-10T07:52:48;95856.84;;;20.16;84.77
23677;BME280;31493;49.058;12.190;2023-06-10T07:55:16;95850.00;;;20.62;81.49
23677;BME280;31493;49.058;12.190;2023-06-10T07:57:43;95847.53;;;20.92;80.48
23677;BME280;31493;49.058;12.190;2023-06-10T08:00:11;95849.69;;;20.88;79.49
23677;BME280;31493;49.058;12.190;2023-06-10T08:02:38;95851.69;;;21.09;77.85
23677;BME280;31493;49.058;12.190;2023-06-10T08:05:06;95858.28;;;20.82;76.69
23677;BME280;31493;49.058;12.190;2023-06-10T08:07:33;95863.66;;;20.50;79.10
23677;BME280;31493;49.058;12.190;2023-06-10T08:10:03;95856.53;;;21.29;78.80
23677;BME280;31493;49.058;12.190;2023-06-10T08:12:32;95846.00;;;21.29;79.84
23677;BME280;31493;49.058;12.190;2023-06-10T08:14:59;95846.53;;;20.93;78.76
23677;BME280;31493;49.058;12.190;2023-06-10T08:17:26;95851.16;;;20.44;79.30
23677;BME280;31493;49.058;12.190;2023-06-10T08:19:53;95853.16;;;20.42;78.51
23677;BME280;31493;49.058;12.190;2023-06-10T08:22:20;95853.50;;;20.38;80.40
23677;BME280;31493;49.058;12.190;2023-06-10T08:24:47;95864.72;;;20.32;79.88
23677;BME280;31493;49.058;12.190;2023-06-10T08:27:14;95860.22;;;21.11;78.77
23677;BME280;31493;49.058;12.190;2023-06-10T08:29:43;95879.34;;;20.74;79.17
23677;BME280;31493;49.058;12.190;2023-06-10T08:32:10;95871.41;;;20.51;79.41
23677;BME280;31493;49.058;12.190;2023-06-10T08:34:37;95870.50;;;20.67;79.57
23677;BME280;31493;49.058;12.190;2023-06-10T08:37:04;95883.19;;;20.55;79.67
23677;BME280;31493;49.058;12.190;2023-06-10T08:39:31;95878.31;;;20.52;80.45
23677;BME280;31493;49.058;12.190;2023-06-10T08:42:05;95884.97;;;20.71;80.15
23677;BME280;31493;49.058;12.190;2023-06-10T08:44:37;95884.25;;;20.38;80.59
23677;BME280;31493;49.058;12.190;2023-06-10T08:47:12;95878.63;;;20.57;81.30
23677;BME280;31493;49.058;12.190;2023-06-10T08:49:44;95874.72;;;20.45;79.47
23677;BME280;31493;49.058;12.190;2023-06-10T08:52:15;95878.66;;;20.33;80.04
23677;BME280;31493;49.058;12.190;2023-06-10T08:54:47;95874.69;;;20.53;79.14
23677;BME280;31493;49.058;12.190;2023-06-10T08:57:15;95877.44;;;20.60;79.23
23677;BME280;31493;49.058;12.190;2023-06-10T08:59:42;95875.31;;;20.63;78.45
23677;BME280;31493;49.058;12.190;2023-06-10T09:02:11;95865.81;;;20.85;78.76
23677;BME280;31493;49.058;12.190;2023-06-10T09:04:42;95873.00;;;21.31;76.16
23677;BME280;31493;49.058;12.190;2023-06-10T09:07:10;95870.22;;;21.70;75.85
23677;BME280;31493;49.058;12.190;2023-06-10T09:09:37;95870.25;;;21.16;74.39
23677;BME280;31493;49.058;12.190;2023-06-10T09:12:05;95874.03;;;21.44;75.39
23677;BME280;31493;49.058;12.190;2023-06-10T09:14:32;95869.53;;;21.22;76.04
23677;BME280;31493;49.058;12.190;2023-06-10T09:17:00;95862.28;;;21.01;75.99
23677;BME280;31493;49.058;12.190;2023-06-10T09:19:28;95873.41;;;21.42;73.74
23677;BME280;31493;49.058;12.190;2023-06-10T09:21:55;95864.69;;;21.80;73.47
23677;BME280;31493;49.058;12.190;2023-06-10T09:24:22;95860.66;;;21.23;70.21
23677;BME280;31493;49.058;12.190;2023-06-10T09:26:50;95862.53;;;21.60;72.42
23677;BME280;31493;49.058;12.190;2023-06-10T09:29:17;95869.94;;;21.11;71.59
23677;BME280;31493;49.058;12.190;2023-06-10T09:31:44;95865.34;;;21.36;72.36
23677;BME280;31493;49.058;12.190;2023-06-10T09:34:13;95872.56;;;21.42;73.13
23677;BME280;31493;49.058;12.190;2023-06-10T09:36:42;95872.22;;;21.45;71.16
23677;BME280;31493;49.058;12.190;2023-06-10T09:39:13;95868.00;;;21.59;71.37
23677;BME280;31493;49.058;12.190;2023-06-10T09:41:41;95870.59;;;21.44;74.20
23677;BME280;31493;49.058;12.190;2023-06-10T09:44:11;95872.63;;;21.34;74.14
23677;BME280;31493;49.058;12.190;2023-06-10T09:46:40;95876.50;;;21.15;74.96
23677;BME280;31493;49.058;12.190;2023-06-10T09:49:08;95871.81;;;21.56;75.08
23677;BME280;31493;49.058;12.190;2023-06-10T09:51:35;95878.31;;;21.45;74.21
23677;BME280;31493;49.058;12.190;2023-06-10T09:54:03;95875.59;;;21.54;74.17
23677;BME280;31493;49.058;12.190;2023-06-10T09:56:34;95879.06;;;21.23;74.14
23677;BME280;31493;49.058;12.190;2023-06-10T09:59:02;95877.56;;;21.37;74.04
23677;BME280;31493;49.058;12.190;2023-06-10T10:01:30;95884.44;;;21.38;76.66
23677;BME280;31493;49.058;12.190;2023-06-10T10:03:59;95877.75;;;21.27;76.57
23677;BME280;31493;49.058;12.190;2023-06-10T10:06:27;95878.81;;;21.41;76.96
23677;BME280;31493;49.058;12.190;2023-06-10T10:08:54;95881.84;;;21.30;75.36
23677;BME280;31493;49.058;12.190;2023-06-10T10:11:23;95876.38;;;21.39;76.30
23677;BME280;31493;49.058;12.190;2023-06-10T10:13:52;95874.22;;;21.43;75.29
23677;BME280;31493;49.058;12.190;2023-06-10T10:16:21;95867.97;;;21.96;73.57
23677;BME280;31493;49.058;12.190;2023-06-10T10:18:52;95871.19;;;22.07;72.78
23677;BME280;31493;49.058;12.190;2023-06-10T10:21:23;95865.94;;;22.80;72.60
23677;BME280;31493;49.058;12.190;2023-06-10T10:23:55;95866.63;;;23.83;73.81
23677;BME280;31493;49.058;12.190;2023-06-10T10:26:27;95866.66;;;23.47;72.92
23677;BME280;31493;49.058;12.190;2023-06-10T10:29:04;95860.38;;;23.26;71.26
23677;BME280;31493;49.058;12.190;2023-06-10T10:31:34;95868.06;;;22.41;74.71
23677;BME280;31493;49.058;12.190;2023-06-10T10:34:05;95866.22;;;22.12;76.97
23677;BME280;31493;49.058;12.190;2023-06-10T10:36:33;95872.72;;;21.86;77.15
23677;BME280;31493;49.058;12.190;2023-06-10T10:39:02;95866.69;;;21.78;76.58
23677;BME280;31493;49.058;12.190;2023-06-10T10:41:32;95882.16;;;21.58;76.76
23677;BME280;31493;49.058;12.190;2023-06-10T10:44:00;95873.34;;;21.51;83.00
23677;BME280;31493;49.058;12.190;2023-06-10T10:46:27;95881.75;;;21.46;85.13
23677;BME280;31493;49.058;12.190;2023-06-10T10:48:56;95877.44;;;21.30;87.23
23677;BME280;31493;49.058;12.190;2023-06-10T10:51:24;95876.31;;;21.16;89.82
23677;BME280;31493;49.058;12.190;2023-06-10T10:54:09;95881.44;;;21.18;87.25
23677;BME280;31493;49.058;12.190;2023-06-10T10:56:38;95876.31;;;21.16;90.55
23677;BME280;31493;49.058;12.190;2023-06-10T10:59:06;95882.69;;;21.22;87.16
23677;BME280;31493;49.058;12.190;2023-06-10T11:01:40;95878.09;;;21.24;87.13
23677;BME280;31493;49.058;12.190;2023-06-10T11:04:08;95878.91;;;21.25;86.59
23677;BME280;31493;49.058;12.190;2023-06-10T11:06:35;95878.19;;;21.08;92.02
23677;BME280;31493;49.058;12.190;2023-06-10T11:09:25;95879.56;;;21.27;91.84
23677;BME280;31493;49.058;12.190;2023-06-10T11:11:56;95877.63;;;21.20;93.57
23677;BME280;31493;49.058;12.190;2023-06-10T11:14:26;95866.66;;;21.09;90.98
23677;BME280;31493;49.058;12.190;2023-06-10T11:16:56;95867.44;;;20.86;91.65
23677;BME280;31493;49.058;12.190;2023-06-10T11:19:33;95873.31;;;20.97;95.35
23677;BME280;31493;49.058;12.190;2023-06-10T11:22:02;95863.84;;;20.87;91.38
23677;BME280;31493;49.058;12.190;2023-06-10T11:24:29;95863.41;;;21.07;92.24
23677;BME280;31493;49.058;12.190;2023-06-10T11:27:16;95859.06;;;21.14;92.80
23677;BME280;31493;49.058;12.190;2023-06-10T11:29:58;95860.91;;;21.05;90.87
23677;BME280;31493;49.058;12.190;2023-06-10T11:32:29;95860.59;;;21.08;91.45
23677;BME280;31493;49.058;12.190;2023-06-10T11:34:56;95858.69;;;21.25;91.54
23677;BME280;31493;49.058;12.190;2023-06-10T11:37:23;95862.94;;;21.72;87.99
23677;BME280;31493;49.058;12.190;2023-06-10T11:39:52;95851.31;;;22.34;85.33
23677;BME280;31493;49.058;12.190;2023-06-10T11:42:21;95854.41;;;22.37;79.79
23677;BME280;31493;49.058;12.190;2023-06-10T11:44:49;95850.72;;;21.94;83.48
23677;BME280;31493;49.058;12.190;2023-06-10T11:47:17;95853.25;;;22.10;84.74
23677;BME280;31493;49.058;12.190;2023-06-10T11:49:44;95860.34;;;22.02;82.43
23677;BME280;31493;49.058;12.190;2023-06-10T11:52:11;95853.16;;;22.18;80.65
23677;BME280;31493;49.058;12.190;2023-06-10T11:54:38;95840.50;;;23.30;79.27
23677;BME280;31493;49.058;12.190;2023-06-10T11:57:05;95858.00;;;24.02;78.33
23677;BME280;31493;49.058;12.190;2023-06-10T11:59:35;95842.66;;;24.54;72.07
23677;BME280;31493;49.058;12.190;2023-06-10T12:02:02;95846.56;;;23.95;70.26
23677;BME280;31493;49.058;12.190;2023-06-10T12:04:29;95844.63;;;24.38;76.48
23677;BME280;31493;49.058;12.190;2023-06-10T12:06:56;95847.97;;;23.91;67.73
23677;BME280;31493;49.058;12.190;2023-06-10T12:09:25;95856.91;;;23.04;70.59
23677;BME280;31493;49.058;12.190;2023-06-10T12:11:56;95859.28;;;22.70;72.30
23677;BME280;31493;49.058;12.190;2023-06-10T12:14:53;95854.69;;;22.42;78.36
23677;BME280;31493;49.058;12.190;2023-06-10T12:17:22;95864.53;;;21.81;95.02
23677;BME280;31493;49.058;12.190;2023-06-10T12:19:49;95867.94;;;21.44;100.00
23677;BME280;31493;49.058;12.190;2023-06-10T12:22:16;95871.72;;;21.18;100.00
23677;BME280;31493;49.058;12.190;2023-06-10T12:24:46;95867.22;;;21.27;100.00
23677;BME280;31493;49.058;12.190;2023-06-10T12:27:25;95854.59;;;21.45;100.00
23677;BME280;31493;49.058;12.190;2023-06-10T12:29:55;95860.72;;;21.98;100.00
23677;BME280;31493;49.058;12.190;2023-06-10T12:32:36;95847.50;;;22.51;100.00
23677;BME280;31493;49.058;12.190;2023-06-10T12:35:04;95847.75;;;22.56;100.00
23677;BME280;31493;49.058;12.190;2023-06-10T12:37:32;95852.16;;;21.96;100.00
23677;BME280;31493;49.058;12.190;2023-06-10T12:40:00;95856.91;;;21.86;100.00
23677;BME280;31493;49.058;12.190;2023-06-10T12:42:29;95854.50;;;21.77;100.00
23677;BME280;31493;49.058;12.190;2023-06-10T12:44:58;95851.34;;;21.81;100.00
23677;BME280;31493;49.058;12.190;2023-06-10T12:47:29;95858.97;;;21.76;100.00
23677;BME280;31493;49.058;12.190;2023-06-10T12:49:58;95851.44;;;21.73;100.00
23677;BME280;31493;49.058;12.190;2023-06-10T12:52:25;95848.47;;;22.65;100.00